createdAt,value
2018-06-24T00:00:36.243Z,38.03
2018-06-24T00:02:39.282Z,39.57
2018-06-24T00:04:42.702Z,39.10
2018-06-24T00:06:45.847Z,38.03
2018-06-24T00:08:49.111Z,40.27
2018-06-24T00:10:52.191Z,37.87
2018-06-24T00:12:55.209Z,36.97
2018-06-24T00:14:59.936Z,43.00
2018-06-24T00:17:02.930Z,39.07
2018-06-24T00:19:06.033Z,41.20
2018-06-24T00:21:09.195Z,36.43
2018-06-24T00:23:12.300Z,40.40
2018-06-24T00:25:15.411Z,39.97
2018-06-24T00:27:18.596Z,40.13
2018-06-24T00:29:21.738Z,37.40
2018-06-24T00:31:24.932Z,39.30
2018-06-24T00:33:28.685Z,38.73
2018-06-24T00:35:31.620Z,37.53
2018-06-24T00:37:34.918Z,39.93
2018-06-24T00:39:37.998Z,40.23
2018-06-24T00:41:41.270Z,38.00
2018-06-24T00:43:44.260Z,39.17
2018-06-24T00:45:47.080Z,39.13
2018-06-24T00:47:50.140Z,41.43
2018-06-24T00:49:53.634Z,40.97
2018-06-24T00:51:57.037Z,41.90
2018-06-24T00:54:00.061Z,44.57
2018-06-24T00:56:03.318Z,41.87
2018-06-24T00:58:06.192Z,42.30
2018-06-24T01:00:09.438Z,42.17
2018-06-24T01:02:13.016Z,40.13
2018-06-24T01:04:16.235Z,41.63
2018-06-24T01:06:19.259Z,38.13
2018-06-24T01:08:22.337Z,36.07
2018-06-24T01:10:25.731Z,36.57
2018-06-24T01:12:28.861Z,34.43
2018-06-24T01:14:32.103Z,33.10
2018-06-24T01:16:35.211Z,30.20
2018-06-24T01:18:38.940Z,30.30
2018-06-24T01:20:42.177Z,30.27
2018-06-24T01:22:45.242Z,29.60
2018-06-24T01:24:48.772Z,29.07
2018-06-24T01:26:52.542Z,26.17
2018-06-24T01:28:55.720Z,27.60
2018-06-24T01:30:59.199Z,26.70
2018-06-24T01:33:02.519Z,26.50
2018-06-24T01:35:05.627Z,28.03
2018-06-24T01:37:08.887Z,27.73
2018-06-24T01:39:12.186Z,26.53
2018-06-24T01:41:15.782Z,26.60
2018-06-24T01:43:19.079Z,24.93
2018-06-24T01:45:22.501Z,26.40
2018-06-24T01:47:25.964Z,25.40
2018-06-24T01:49:29.320Z,25.67
2018-06-24T01:51:32.860Z,26.10
2018-06-24T01:53:35.993Z,25.43
2018-06-24T01:55:39.698Z,24.40
2018-06-24T01:57:42.833Z,24.90
2018-06-24T01:59:45.962Z,24.90
2018-06-24T02:01:48.919Z,25.93
2018-06-24T02:03:56.115Z,23.70
2018-06-24T02:05:59.235Z,23.10
2018-06-24T02:08:02.859Z,25.00
2018-06-24T02:10:06.202Z,24.57
2018-06-24T02:12:09.084Z,23.80
2018-06-24T02:14:12.320Z,24.43
2018-06-24T02:16:15.418Z,21.90
2018-06-24T02:18:18.600Z,22.50
2018-06-24T02:20:21.809Z,23.03
2018-06-24T02:22:24.982Z,23.30
2018-06-24T02:24:28.421Z,22.67
2018-06-24T02:26:31.775Z,20.67
2018-06-24T02:28:34.970Z,23.40
2018-06-24T02:30:38.060Z,24.17
2018-06-24T02:32:41.274Z,21.97
2018-06-24T02:34:44.951Z,22.60
2018-06-24T02:36:48.377Z,22.00
2018-06-24T02:38:51.820Z,23.40
2018-06-24T02:40:55.069Z,21.80
2018-06-24T02:42:58.612Z,21.90
2018-06-24T02:45:01.509Z,19.97
2018-06-24T02:47:04.810Z,20.03
2018-06-24T02:49:08.072Z,20.63
2018-06-24T02:53:22.051Z,20.83
2018-06-24T02:55:25.281Z,22.50
2018-06-24T02:57:28.487Z,19.50
2018-06-24T02:59:32.039Z,18.87
2018-06-24T03:01:34.992Z,19.23
2018-06-24T03:03:38.316Z,21.53
2018-06-24T03:05:41.568Z,19.30
2018-06-24T03:07:44.735Z,18.87
2018-06-24T03:09:47.944Z,19.70
2018-06-24T03:11:51.220Z,18.93
2018-06-24T03:13:56.164Z,19.63
2018-06-24T03:15:59.282Z,18.53
2018-06-24T03:18:02.507Z,19.13
2018-06-24T03:20:05.389Z,17.30
2018-06-24T03:22:09.095Z,19.67
2018-06-24T03:24:17.112Z,18.49
2018-06-24T03:46:03.223Z,18.57
2018-06-24T03:48:06.124Z,18.00
2018-06-24T03:50:10.347Z,19.23
2018-06-24T03:52:13.462Z,18.10
2018-06-24T03:54:17.530Z,18.23
2018-06-24T03:56:20.245Z,19.90
2018-06-24T03:58:23.323Z,19.70
2018-06-24T04:00:26.173Z,18.50
2018-06-24T04:02:29.123Z,18.60
2018-06-24T04:04:31.929Z,20.03
2018-06-24T04:06:34.695Z,19.27
2018-06-24T04:08:38.020Z,20.57
2018-06-24T04:10:41.192Z,21.00
2018-06-24T04:12:44.164Z,19.80
2018-06-24T04:14:47.376Z,21.90
2018-06-24T04:16:50.452Z,21.67
2018-06-24T04:18:53.420Z,20.27
2018-06-24T04:20:56.523Z,19.93
2018-06-24T04:22:59.290Z,19.90
2018-06-24T04:25:02.273Z,21.20
2018-06-24T04:27:05.350Z,20.60
2018-06-24T04:29:08.193Z,18.40
2018-06-24T04:31:11.345Z,20.03
2018-06-24T04:33:14.050Z,19.00
2018-06-24T04:35:16.955Z,17.73
2018-06-24T04:37:19.668Z,18.83
2018-06-24T04:39:22.885Z,19.93
2018-06-24T04:41:25.890Z,19.17
2018-06-24T04:43:29.773Z,18.70
2018-06-24T04:45:32.825Z,18.20
2018-06-24T04:47:36.494Z,18.20
2018-06-24T04:49:39.390Z,18.57
2018-06-24T04:51:42.572Z,18.90
2018-06-24T04:53:45.788Z,17.87
2018-06-24T04:55:48.870Z,18.93
2018-06-24T04:57:52.036Z,18.23
2018-06-24T04:59:55.260Z,18.70
2018-06-24T05:01:58.343Z,20.73
2018-06-24T05:04:01.303Z,20.97
2018-06-24T05:06:04.624Z,18.60
2018-06-24T05:08:07.919Z,19.87
2018-06-24T05:10:11.295Z,21.17
2018-06-24T05:12:14.496Z,19.50
2018-06-24T05:14:17.359Z,19.30
2018-06-24T05:16:20.756Z,18.63
2018-06-24T05:18:24.114Z,20.73
2018-06-24T05:20:26.832Z,19.93
2018-06-24T05:22:29.865Z,18.57
2018-06-24T05:24:32.997Z,19.03
2018-06-24T05:26:35.848Z,19.37
2018-06-24T05:28:38.759Z,19.87
2018-06-24T05:30:41.955Z,19.80
2018-06-24T05:32:45.306Z,18.57
2018-06-24T05:34:48.226Z,19.83
2018-06-24T05:36:51.305Z,19.07
2018-06-24T05:38:54.416Z,20.57
2018-06-24T05:40:57.583Z,17.97
2018-06-24T05:43:00.938Z,20.37
2018-06-24T05:45:03.943Z,19.00
2018-06-24T05:47:06.787Z,20.23
2018-06-24T05:49:09.913Z,19.13
2018-06-24T05:51:12.893Z,19.37
2018-06-24T05:53:15.983Z,18.50
2018-06-24T05:55:18.974Z,21.50
2018-06-24T05:57:21.946Z,19.00
2018-06-24T05:59:24.942Z,19.53
2018-06-24T06:01:28.173Z,19.43
2018-06-24T06:03:31.243Z,19.40
2018-06-24T06:05:34.456Z,18.70
2018-06-24T06:07:37.999Z,18.17
2018-06-24T06:09:41.311Z,18.20
2018-06-24T06:11:44.551Z,18.10
2018-06-24T06:13:47.657Z,18.30
2018-06-24T06:15:50.965Z,18.70
2018-06-24T06:17:53.954Z,18.23
2018-06-24T06:19:56.649Z,18.83
2018-06-24T06:21:59.739Z,17.93
2018-06-24T06:24:03.002Z,18.97
2018-06-24T06:26:05.923Z,19.57
2018-06-24T06:28:09.005Z,18.10
2018-06-24T06:30:12.076Z,19.07
2018-06-24T06:32:15.352Z,19.73
2018-06-24T06:34:18.626Z,18.50
2018-06-24T06:36:21.835Z,20.90
2018-06-24T06:38:25.086Z,18.77
2018-06-24T06:40:28.098Z,21.73
2018-06-24T06:42:31.184Z,20.03
2018-06-24T06:44:34.446Z,19.60
2018-06-24T06:46:37.546Z,18.97
2018-06-24T06:48:40.639Z,19.77
2018-06-24T06:50:43.837Z,21.13
2018-06-24T06:52:46.686Z,19.90
2018-06-24T06:54:49.820Z,18.50
2018-06-24T06:56:52.860Z,20.47
2018-06-24T06:58:55.798Z,19.83
2018-06-24T07:00:58.719Z,18.90
2018-06-24T07:03:02.034Z,20.17
2018-06-24T07:05:05.314Z,19.67
2018-06-24T07:07:08.408Z,19.17
2018-06-24T07:09:12.066Z,17.90
2018-06-24T07:11:15.209Z,19.00
2018-06-24T07:13:18.696Z,17.80
2018-06-24T07:15:21.985Z,18.10
2018-06-24T07:17:24.977Z,18.07
2018-06-24T07:19:27.951Z,19.03
2018-06-24T07:21:31.250Z,18.80
2018-06-24T07:23:34.429Z,16.90
2018-06-24T07:25:38.619Z,16.43
2018-06-24T07:27:41.759Z,16.07
2018-06-24T07:29:44.698Z,16.77
2018-06-24T07:31:47.803Z,14.17
2018-06-24T07:33:51.229Z,16.73
2018-06-24T07:35:54.264Z,14.90
2018-06-24T07:37:56.991Z,15.10
2018-06-24T07:39:59.798Z,15.03
2018-06-24T07:42:02.899Z,15.27
2018-06-24T07:44:06.625Z,14.87
2018-06-24T07:46:09.643Z,14.83
2018-06-24T07:48:12.681Z,14.13
2018-06-24T07:50:15.577Z,15.33
2018-06-24T07:52:18.743Z,15.13
2018-06-24T07:54:21.736Z,14.93
2018-06-24T07:56:24.814Z,14.20
2018-06-24T07:58:27.843Z,13.77
2018-06-24T08:00:30.986Z,14.73
2018-06-24T08:02:34.196Z,13.93
2018-06-24T08:04:37.779Z,14.83
2018-06-24T08:06:40.552Z,12.67
2018-06-24T08:08:43.545Z,15.67
2018-06-24T08:10:46.630Z,12.63
2018-06-24T08:12:50.318Z,13.43
2018-06-24T08:14:53.626Z,13.43
2018-06-24T08:16:57.044Z,12.40
2018-06-24T08:18:59.864Z,12.20
2018-06-24T08:21:04.016Z,13.57
2018-06-24T08:23:07.366Z,11.97
2018-06-24T08:25:10.200Z,12.87
2018-06-24T08:27:13.037Z,12.53
2018-06-24T08:29:16.168Z,13.93
2018-06-24T08:31:18.785Z,11.80
2018-06-24T08:33:21.805Z,11.90
2018-06-24T08:35:25.404Z,13.60
2018-06-24T08:37:28.734Z,13.20
2018-06-24T08:39:32.012Z,11.67
2018-06-24T08:41:35.696Z,12.33
2018-06-24T08:43:38.980Z,12.07
2018-06-24T08:45:42.472Z,13.10
2018-06-24T08:47:45.551Z,13.03
2018-06-24T08:49:48.750Z,12.97
2018-06-24T08:51:52.540Z,14.33
2018-06-24T08:53:55.489Z,13.70
2018-06-24T08:55:58.552Z,15.13
2018-06-24T08:58:01.923Z,16.73
2018-06-24T09:00:05.932Z,15.93
2018-06-24T09:02:08.952Z,16.70
2018-06-24T09:04:12.012Z,15.43
2018-06-24T09:06:15.710Z,16.77
2018-06-24T09:08:18.877Z,17.00
2018-06-24T09:10:21.952Z,16.70
2018-06-24T09:12:25.123Z,16.77
2018-06-24T09:14:27.645Z,17.67
2018-06-24T09:16:30.820Z,16.33
2018-06-24T09:18:33.884Z,16.03
2018-06-24T09:20:36.887Z,16.30
2018-06-24T09:22:39.782Z,15.83
2018-06-24T09:24:42.951Z,16.37
2018-06-24T09:26:46.104Z,15.90
2018-06-24T09:28:48.834Z,17.20
2018-06-24T09:30:52.048Z,16.30
2018-06-24T09:32:55.095Z,16.43
2018-06-24T09:34:58.298Z,17.50
2018-06-24T09:37:01.464Z,18.70
2018-06-24T09:39:04.869Z,18.70
2018-06-24T09:41:08.050Z,18.10
2018-06-24T09:43:11.349Z,17.83
2018-06-24T09:45:14.428Z,18.47
2018-06-24T09:47:17.499Z,19.43
2018-06-24T09:49:20.686Z,19.60
2018-06-24T09:51:24.003Z,20.47
2018-06-24T09:53:27.094Z,19.27
2018-06-24T09:55:30.189Z,19.90
2018-06-24T09:57:33.240Z,19.47
2018-06-24T09:59:35.981Z,19.33
2018-06-24T10:01:39.220Z,20.40
2018-06-24T10:03:42.123Z,19.77
2018-06-24T10:05:44.988Z,18.37
2018-06-24T10:07:48.152Z,18.50
2018-06-24T10:09:51.240Z,18.07
2018-06-24T10:11:54.193Z,17.90
2018-06-24T10:13:57.170Z,17.60
2018-06-24T10:16:00.075Z,18.43
2018-06-24T10:18:03.390Z,19.10
2018-06-24T10:20:06.569Z,19.00
2018-06-24T10:22:09.607Z,19.40
2018-06-24T10:24:12.908Z,18.73
2018-06-24T10:26:15.818Z,17.50
2018-06-24T10:28:18.288Z,18.83
2018-06-24T10:30:21.605Z,18.43
2018-06-24T10:32:24.822Z,18.30
2018-06-24T10:34:28.082Z,17.03
2018-06-24T10:36:31.739Z,18.60
2018-06-24T10:38:34.750Z,17.53
2018-06-24T10:40:37.850Z,17.83
2018-06-24T10:42:41.125Z,18.77
2018-06-24T10:44:44.187Z,16.60
2018-06-24T10:46:47.029Z,17.07
2018-06-24T10:48:50.078Z,17.23
2018-06-24T10:50:53.193Z,18.10
2018-06-24T10:52:56.231Z,16.87
2018-06-24T10:54:59.164Z,18.00
2018-06-24T10:57:02.010Z,17.93
2018-06-24T10:59:05.164Z,16.97
2018-06-24T11:01:08.389Z,18.10
2018-06-24T11:03:11.723Z,18.20
2018-06-24T11:05:15.123Z,18.67
2018-06-24T11:07:18.650Z,17.73
2018-06-24T11:09:21.765Z,17.23
2018-06-24T11:11:25.069Z,18.70
2018-06-24T11:13:27.885Z,18.53
2018-06-24T11:15:31.006Z,18.10
2018-06-24T11:17:34.068Z,17.63
2018-06-24T11:19:37.332Z,18.83
2018-06-24T11:21:40.799Z,18.40
2018-06-24T11:23:44.811Z,18.17
2018-06-24T11:25:47.667Z,17.47
2018-06-24T11:27:50.586Z,18.50
2018-06-24T11:29:53.764Z,16.57
2018-06-24T11:31:56.345Z,17.23
2018-06-24T11:33:59.329Z,17.90
2018-06-24T11:36:05.379Z,17.87
2018-06-24T11:38:12.148Z,19.57
2018-06-24T11:40:16.884Z,19.73
2018-06-24T11:42:19.894Z,21.50
2018-06-24T11:44:23.138Z,27.80
2018-06-24T11:46:26.250Z,42.67
2018-06-24T11:48:30.012Z,82.57
2018-06-24T11:50:33.226Z,68.13
2018-06-24T11:52:36.201Z,75.93
2018-06-24T11:54:39.027Z,84.93
2018-06-24T11:56:42.053Z,65.57
2018-06-24T11:58:45.033Z,53.90
2018-06-24T12:00:48.233Z,47.27
2018-06-24T12:02:51.522Z,45.80
2018-06-24T12:04:54.498Z,41.90
2018-06-24T12:06:57.484Z,38.07
2018-06-24T12:09:00.251Z,40.63
2018-06-24T12:11:04.259Z,38.60
2018-06-24T12:13:07.344Z,37.03
2018-06-24T12:15:10.439Z,37.20
2018-06-24T12:17:13.621Z,36.80
2018-06-24T12:19:16.437Z,36.87
2018-06-24T12:21:19.373Z,37.97
2018-06-24T12:23:23.406Z,37.47
2018-06-24T12:25:26.383Z,36.83
2018-06-24T12:27:29.350Z,33.20
2018-06-24T12:29:32.234Z,34.37
2018-06-24T12:31:35.497Z,34.73
2018-06-24T12:33:38.335Z,34.87
2018-06-24T12:35:41.604Z,32.10
2018-06-24T12:37:44.691Z,32.40
2018-06-24T12:39:47.575Z,33.40
2018-06-24T12:41:50.357Z,32.47
2018-06-24T12:43:55.183Z,32.03
2018-06-24T12:45:57.883Z,33.70
2018-06-24T12:48:02.072Z,31.20
2018-06-24T12:50:06.733Z,33.43
2018-06-24T12:52:09.723Z,31.47
2018-06-24T12:54:13.753Z,30.80
2018-06-24T12:56:16.720Z,31.27
2018-06-24T12:58:19.706Z,28.60
2018-06-24T13:00:23.245Z,28.87
2018-06-24T13:02:26.533Z,28.93
2018-06-24T13:04:29.415Z,27.37
2018-06-24T13:06:32.618Z,28.53
2018-06-24T13:08:35.582Z,28.53
2018-06-24T13:10:38.536Z,27.90
2018-06-24T13:12:41.317Z,28.07
2018-06-24T13:14:44.324Z,27.70
2018-06-24T13:16:47.525Z,27.30
2018-06-24T13:18:50.702Z,27.33
2018-06-24T13:20:53.699Z,28.10
2018-06-24T13:22:56.836Z,27.47
2018-06-24T13:24:59.878Z,27.47
2018-06-24T13:27:02.853Z,27.23
2018-06-24T13:29:06.357Z,26.23
2018-06-24T13:31:09.158Z,27.07
2018-06-24T13:33:12.736Z,27.40
2018-06-24T13:35:15.829Z,27.43
2018-06-24T13:37:19.157Z,26.00
2018-06-24T13:39:22.610Z,69.67
2018-06-24T13:41:26.297Z,28.67
2018-06-24T13:43:29.592Z,26.60
2018-06-24T13:45:32.990Z,28.53
2018-06-24T13:47:35.925Z,27.63
2018-06-24T13:49:38.854Z,32.53
2018-06-24T13:51:42.326Z,26.73
2018-06-24T13:53:45.368Z,24.27
2018-06-24T13:55:48.531Z,23.07
2018-06-24T13:57:52.105Z,24.40
2018-06-24T13:59:55.716Z,22.63
2018-06-24T14:01:58.971Z,24.67
2018-06-24T14:04:02.427Z,23.10
2018-06-24T14:06:05.762Z,25.23
2018-06-24T14:08:09.203Z,24.10
2018-06-24T14:10:12.413Z,25.50
2018-06-24T14:12:15.584Z,24.30
2018-06-24T14:14:18.538Z,23.93
2018-06-24T14:16:21.369Z,23.63
2018-06-24T14:18:24.196Z,22.47
2018-06-24T14:20:27.275Z,22.83
2018-06-24T14:22:30.866Z,23.13
2018-06-24T14:24:33.870Z,19.87
2018-06-24T14:26:36.706Z,21.13
2018-06-24T14:28:39.708Z,20.17
2018-06-24T14:30:42.817Z,21.00
2018-06-24T14:32:46.179Z,21.43
2018-06-24T14:34:49.175Z,21.03
2018-06-24T14:36:53.931Z,21.77
2018-06-24T14:38:58.082Z,23.30
2018-06-24T14:41:01.008Z,21.93
2018-06-24T14:43:04.363Z,20.87
2018-06-24T14:45:08.295Z,21.60
2018-06-24T14:47:11.484Z,22.03
2018-06-24T14:49:14.605Z,22.50
2018-06-24T14:51:17.761Z,21.83
2018-06-24T14:53:21.108Z,21.13
2018-06-24T14:55:24.237Z,21.77
2018-06-24T14:57:26.897Z,21.40
2018-06-24T14:59:29.578Z,21.17
2018-06-24T15:01:32.677Z,22.67
2018-06-24T15:03:37.573Z,21.77
2018-06-24T15:05:40.412Z,23.00
2018-06-24T15:07:43.987Z,22.20
2018-06-24T15:09:46.959Z,23.00
2018-06-24T15:11:50.167Z,23.57
2018-06-24T15:13:53.134Z,37.03
2018-06-24T15:15:56.149Z,33.03
2018-06-24T15:17:59.239Z,41.80
2018-06-24T15:20:02.724Z,39.17
2018-06-24T15:22:05.713Z,48.07
2018-06-24T15:24:08.877Z,44.50
2018-06-24T15:26:12.242Z,45.17
2018-06-24T15:28:15.295Z,41.57
2018-06-24T15:30:18.796Z,45.60
2018-06-24T15:32:22.442Z,43.60
2018-06-24T15:34:26.067Z,46.07
2018-06-24T15:36:28.727Z,41.50
2018-06-24T15:38:31.401Z,43.40
2018-06-24T15:40:34.378Z,42.30
2018-06-24T15:42:37.085Z,42.07
2018-06-24T15:44:40.136Z,42.83
2018-06-24T15:46:43.062Z,38.93
2018-06-24T15:48:46.159Z,42.00
2018-06-24T15:50:49.296Z,40.60
2018-06-24T15:52:52.500Z,42.67
2018-06-24T15:54:55.704Z,42.07
2018-06-24T15:56:58.623Z,43.17
2018-06-24T15:59:01.912Z,42.80
2018-06-24T16:01:05.141Z,43.97
2018-06-24T16:03:07.952Z,43.87
2018-06-24T16:05:11.009Z,44.50
2018-06-24T16:07:14.139Z,43.27
2018-06-24T16:09:17.082Z,46.67
2018-06-24T16:11:19.980Z,46.33
2018-06-24T16:13:23.319Z,44.37
2018-06-24T16:15:26.338Z,46.80
2018-06-24T16:17:29.651Z,44.97
2018-06-24T16:19:32.899Z,45.67
2018-06-24T16:21:35.918Z,45.37
2018-06-24T16:23:38.991Z,46.03
2018-06-24T16:25:42.289Z,47.53
2018-06-24T16:27:45.481Z,47.33
2018-06-24T16:29:48.551Z,48.23
2018-06-24T16:31:51.765Z,48.80
2018-06-24T16:33:54.840Z,47.40
2018-06-24T16:35:57.899Z,47.40
2018-06-24T16:38:01.225Z,48.90
2018-06-24T16:40:04.290Z,46.73
2018-06-24T16:42:07.216Z,47.77
2018-06-24T16:44:10.005Z,49.50
2018-06-24T16:46:13.043Z,46.83
2018-06-24T16:48:16.109Z,47.83
2018-06-24T16:50:19.199Z,48.03
2018-06-24T16:52:22.300Z,45.50
2018-06-24T16:54:25.291Z,48.10
2018-06-24T16:56:30.338Z,46.90
2018-06-24T16:58:33.178Z,48.13
2018-06-24T17:00:36.214Z,48.10
2018-06-24T17:02:39.390Z,45.73
2018-06-24T17:04:42.671Z,46.27
2018-06-24T17:06:45.390Z,46.07
2018-06-24T17:08:48.685Z,47.30
2018-06-24T17:10:51.745Z,47.53
2018-06-24T17:12:54.726Z,46.30
2018-06-24T17:14:58.285Z,46.13
2018-06-24T17:17:01.498Z,49.50
2018-06-24T17:19:04.965Z,48.67
2018-06-24T17:21:08.071Z,49.80
2018-06-24T17:23:11.541Z,49.80
2018-06-24T17:25:14.691Z,44.43
2018-06-24T17:27:18.246Z,46.47
2018-06-24T17:29:21.524Z,45.37
2018-06-24T17:31:24.504Z,45.63
2018-06-24T17:33:27.792Z,46.70
2018-06-24T17:35:30.871Z,43.30
2018-06-24T17:37:33.972Z,44.53
2018-06-24T17:39:36.962Z,44.10
2018-06-24T17:41:39.743Z,41.80
2018-06-24T17:43:42.758Z,48.00
2018-06-24T17:45:45.782Z,42.80
2018-06-24T17:47:48.670Z,44.07
2018-06-24T17:49:52.509Z,42.20
2018-06-24T17:51:56.037Z,41.13
2018-06-24T17:53:58.863Z,44.67
2018-06-24T17:56:01.735Z,41.80
2018-06-24T17:58:05.048Z,41.83
2018-06-24T18:00:08.241Z,41.20
2018-06-24T18:02:11.472Z,42.80
2018-06-24T18:04:14.490Z,40.50
2018-06-24T18:06:18.365Z,40.43
2018-06-24T18:08:21.651Z,42.83
2018-06-24T18:10:24.770Z,40.43
2018-06-24T18:12:27.993Z,40.17
2018-06-24T18:14:31.476Z,42.40
2018-06-24T18:16:34.769Z,38.70
2018-06-24T18:18:39.956Z,39.50
2018-06-24T18:20:43.165Z,38.90
2018-06-24T18:22:46.009Z,39.40
2018-06-24T18:24:48.767Z,39.47
2018-06-24T18:26:51.906Z,38.77
2018-06-24T18:28:55.117Z,36.40
2018-06-24T18:30:58.078Z,35.60
2018-06-24T18:33:01.129Z,36.53
2018-06-24T18:35:04.368Z,35.90
2018-06-24T18:37:07.546Z,35.60
2018-06-24T18:39:10.643Z,36.80
2018-06-24T18:41:14.043Z,34.63
2018-06-24T18:43:17.452Z,36.47
2018-06-24T18:45:20.563Z,34.50
2018-06-24T18:47:24.616Z,36.10
2018-06-24T18:49:27.305Z,34.67
2018-06-24T18:51:30.123Z,36.60
2018-06-24T18:53:33.019Z,35.43
2018-06-24T18:55:36.124Z,33.57
2018-06-24T18:57:39.288Z,34.73
2018-06-24T18:59:42.409Z,35.30
2018-06-24T19:01:45.713Z,33.97
2018-06-24T19:03:48.389Z,34.30
2018-06-24T19:05:51.660Z,34.77
2018-06-24T19:07:55.005Z,32.20
2018-06-24T19:09:58.240Z,34.47
2018-06-24T19:12:01.336Z,31.00
2018-06-24T19:14:04.431Z,35.13
2018-06-24T19:16:07.710Z,33.03
2018-06-24T19:18:10.688Z,32.30
2018-06-24T19:20:13.890Z,31.93
2018-06-24T19:22:16.962Z,33.57
2018-06-24T19:24:19.703Z,33.97
2018-06-24T19:26:22.871Z,31.47
2018-06-24T19:28:26.018Z,32.20
2018-06-24T19:30:29.014Z,31.43
2018-06-24T19:32:32.108Z,34.40
2018-06-24T19:34:35.071Z,32.70
2018-06-24T19:36:38.372Z,31.57
2018-06-24T19:38:41.965Z,31.40
2018-06-24T19:40:44.852Z,30.63
2018-06-24T19:42:48.149Z,29.07
2018-06-24T19:44:51.308Z,31.10
2018-06-24T19:46:54.738Z,29.70
2018-06-24T19:48:58.231Z,28.27
2018-06-24T19:51:01.184Z,28.77
2018-06-24T19:53:04.098Z,30.17
2018-06-24T19:55:07.693Z,30.03
2018-06-24T19:57:10.413Z,30.53
2018-06-24T19:59:13.361Z,29.03
2018-06-24T20:01:16.256Z,29.87
2018-06-24T20:03:19.399Z,29.40
2018-06-24T20:05:22.899Z,30.17
2018-06-24T20:07:26.000Z,29.53
2018-06-24T20:09:29.066Z,29.33
2018-06-24T20:11:33.801Z,28.53
2018-06-24T20:13:36.550Z,29.47
2018-06-24T20:15:39.657Z,30.43
2018-06-24T20:17:42.825Z,28.67
2018-06-24T20:19:45.825Z,29.63
2018-06-24T20:21:48.516Z,27.77
2018-06-24T20:23:51.907Z,28.70
2018-06-24T20:25:54.878Z,29.40
2018-06-24T20:27:58.201Z,29.07
2018-06-24T20:30:01.162Z,29.60
2018-06-24T20:32:04.457Z,28.57
2018-06-24T20:34:07.772Z,26.93
2018-06-24T20:36:11.552Z,27.83
2018-06-24T20:38:14.622Z,28.33
2018-06-24T20:40:17.256Z,28.10
2018-06-24T20:42:20.114Z,27.83
2018-06-24T20:44:23.070Z,26.43
2018-06-24T20:46:26.088Z,25.73
2018-06-24T20:48:28.875Z,26.80
2018-06-24T20:50:32.023Z,27.13
2018-06-24T20:52:35.002Z,27.17
2018-06-24T20:54:38.189Z,26.87
2018-06-24T20:56:41.380Z,28.63
2018-06-24T20:58:44.233Z,27.10
2018-06-24T21:00:47.799Z,25.20
2018-06-24T21:02:50.954Z,26.47
2018-06-24T21:04:54.128Z,28.93
2018-06-24T21:06:57.225Z,26.50
2018-06-24T21:09:00.296Z,28.70
2018-06-24T21:11:03.525Z,27.40
2018-06-24T21:13:06.279Z,27.03
2018-06-24T21:15:09.798Z,26.80
2018-06-24T21:17:12.961Z,27.07
2018-06-24T21:19:17.224Z,25.73
2018-06-24T21:21:20.150Z,27.00
2018-06-24T21:23:23.546Z,27.37
2018-06-24T21:25:26.492Z,28.17
2018-06-24T21:27:31.585Z,27.23
2018-06-24T21:29:34.725Z,27.73
2018-06-24T21:31:37.837Z,27.70
2018-06-24T21:33:41.117Z,27.50
2018-06-24T21:35:45.387Z,25.60
2018-06-24T21:37:48.337Z,26.50
2018-06-24T21:39:51.295Z,26.80
2018-06-24T21:41:54.619Z,27.03
2018-06-24T21:43:57.907Z,27.43
2018-06-24T21:46:01.170Z,26.77
2018-06-24T21:48:04.563Z,26.47
2018-06-24T21:50:07.799Z,27.83
2018-06-24T21:52:11.146Z,28.73
2018-06-24T21:54:14.229Z,26.47
2018-06-24T21:56:17.320Z,28.07
2018-06-24T21:58:20.377Z,25.30
2018-06-24T22:00:23.790Z,26.90
2018-06-24T22:02:26.603Z,26.60
2018-06-24T22:04:29.527Z,28.33
2018-06-24T22:06:32.758Z,27.03
2018-06-24T22:08:35.935Z,27.87
2018-06-24T22:10:39.140Z,27.07
2018-06-24T22:12:42.587Z,25.00
2018-06-24T22:14:45.846Z,26.73
2018-06-24T22:16:49.125Z,27.77
2018-06-24T22:18:52.257Z,26.13
2018-06-24T22:20:55.787Z,27.53
2018-06-24T22:22:58.538Z,26.10
2018-06-24T22:25:02.029Z,26.73
2018-06-24T22:27:05.198Z,27.70
2018-06-24T22:29:08.433Z,28.03
2018-06-24T22:31:11.696Z,25.83
2018-06-24T22:33:14.918Z,27.10
2018-06-24T22:35:18.735Z,26.83
2018-06-24T22:37:22.215Z,26.10
2018-06-24T22:39:25.625Z,28.50
2018-06-24T22:41:28.784Z,27.73
2018-06-24T22:43:32.082Z,26.97
2018-06-24T22:45:35.601Z,28.60
2018-06-24T22:47:38.887Z,28.53
2018-06-24T22:49:42.307Z,33.63
2018-06-24T22:51:45.966Z,35.57
2018-06-24T23:16:39.474Z,45.20
2018-06-24T23:18:42.562Z,40.63
2018-06-24T23:20:46.059Z,43.87
2018-06-24T23:22:49.598Z,40.80
2018-06-24T23:24:53.075Z,38.00
2018-06-24T23:26:56.560Z,39.93
2018-06-24T23:28:59.786Z,39.07
2018-06-24T23:31:03.360Z,40.90
2018-06-24T23:33:06.516Z,41.07
2018-06-24T23:35:09.861Z,40.13
2018-06-24T23:37:13.244Z,39.07
2018-06-24T23:39:16.686Z,36.80
2018-06-24T23:41:19.895Z,40.67
2018-06-24T23:43:23.079Z,42.13
2018-06-24T23:45:26.387Z,40.33
2018-06-24T23:47:29.828Z,37.17
2018-06-24T23:49:32.845Z,41.18
2018-06-24T23:51:36.043Z,40.53
2018-06-24T23:53:39.356Z,38.33
2018-06-24T23:55:42.923Z,38.70
2018-06-24T23:57:46.117Z,40.13
2018-06-24T23:59:49.142Z,36.97
